createdAt,value
2023-05-15T00:00:45.713Z,11.61
2023-05-15T00:03:34.512Z,11.56
2023-05-15T00:06:23.475Z,11.57
2023-05-15T00:09:12.338Z,11.62
2023-05-15T00:12:00.874Z,11.64
2023-05-15T00:14:50.677Z,11.64
2023-05-15T00:17:39.411Z,11.58
2023-05-15T00:20:28.116Z,11.52
2023-05-15T00:23:16.614Z,11.50
2023-05-15T00:26:05.352Z,11.50
2023-05-15T00:28:53.917Z,11.49
2023-05-15T00:31:44.176Z,11.48
2023-05-15T00:34:32.768Z,11.49
2023-05-15T00:37:21.595Z,10.74
2023-05-15T00:40:11.750Z,11.48
2023-05-15T00:43:00.893Z,11.55
2023-05-15T00:45:49.556Z,11.58
2023-05-15T00:48:40.372Z,11.22
2023-05-15T00:51:28.886Z,11.58
2023-05-15T00:54:17.747Z,11.60
2023-05-15T00:57:07.079Z,11.55
2023-05-15T00:59:58.533Z,11.57
2023-05-15T01:02:47.184Z,11.51
2023-05-15T01:05:37.302Z,11.52
2023-05-15T01:08:28.959Z,11.53
2023-05-15T01:11:18.418Z,11.51
2023-05-15T01:14:08.285Z,11.64
2023-05-15T01:16:56.889Z,11.58
2023-05-15T01:19:46.348Z,11.58
2023-05-15T01:23:01.156Z,11.52
2023-05-15T01:26:33.887Z,11.55
2023-05-15T01:29:27.167Z,11.51
2023-05-15T01:32:20.950Z,11.44
2023-05-15T01:35:14.398Z,11.50
2023-05-15T01:38:12.456Z,11.45
2023-05-15T01:41:04.099Z,11.43
2023-05-15T01:43:57.972Z,11.44
2023-05-15T01:46:51.037Z,11.37
2023-05-15T01:49:40.116Z,11.37
2023-05-15T01:52:31.965Z,11.33
2023-05-15T01:55:22.342Z,11.29
2023-05-15T01:58:11.239Z,11.28
2023-05-15T02:01:00.803Z,11.21
2023-05-15T02:03:51.175Z,11.21
2023-05-15T02:06:41.104Z,11.17
2023-05-15T02:09:30.028Z,11.15
2023-05-15T02:12:19.154Z,11.10
2023-05-15T02:15:09.401Z,11.05
2023-05-15T02:17:58.207Z,10.84
2023-05-15T02:20:48.182Z,11.07
2023-05-15T02:23:36.606Z,11.03
2023-05-15T02:26:31.880Z,10.96
2023-05-15T02:29:22.045Z,10.94
2023-05-15T02:32:16.150Z,10.96
2023-05-15T02:35:11.781Z,10.60
2023-05-15T02:38:04.145Z,11.00
2023-05-15T02:40:52.633Z,11.00
2023-05-15T02:43:41.286Z,11.01
2023-05-15T02:46:30.820Z,11.05
2023-05-15T02:49:19.314Z,11.11
2023-05-15T02:52:07.902Z,10.70
2023-05-15T02:54:57.962Z,11.17
2023-05-15T02:57:46.438Z,11.17
2023-05-15T03:00:34.891Z,11.24
2023-05-15T03:03:23.657Z,11.28
2023-05-15T03:06:12.089Z,11.31
2023-05-15T03:09:00.670Z,11.38
2023-05-15T03:11:50.444Z,11.41
2023-05-15T03:14:39.185Z,11.46
2023-05-15T03:17:27.883Z,11.49
2023-05-15T03:20:16.529Z,11.54
2023-05-15T03:23:04.972Z,11.59
2023-05-15T03:25:53.472Z,11.62
2023-05-15T03:28:43.261Z,11.65
2023-05-15T03:31:31.763Z,11.66
2023-05-15T03:34:20.251Z,11.72
2023-05-15T03:37:08.879Z,11.71
2023-05-15T03:39:57.444Z,11.76
2023-05-15T03:42:45.900Z,11.78
2023-05-15T03:45:35.995Z,11.78
2023-05-15T03:48:24.755Z,11.63
2023-05-15T03:51:13.381Z,11.73
2023-05-15T03:54:05.033Z,11.70
2023-05-15T03:56:53.885Z,11.67
2023-05-15T03:59:42.421Z,11.62
2023-05-15T04:02:32.296Z,11.52
2023-05-15T04:05:21.883Z,11.51
2023-05-15T04:08:12.341Z,11.48
2023-05-15T04:11:00.859Z,11.56
2023-05-15T04:13:49.581Z,11.57
2023-05-15T04:16:38.068Z,11.55
2023-05-15T04:19:27.918Z,11.58
2023-05-15T04:22:16.387Z,11.72
2023-05-15T04:25:05.942Z,11.80
2023-05-15T04:27:54.768Z,11.68
2023-05-15T04:30:43.197Z,11.86
2023-05-15T04:33:31.644Z,11.85
2023-05-15T04:36:22.523Z,11.93
2023-05-15T04:39:11.125Z,11.97
2023-05-15T04:41:59.724Z,11.98
2023-05-15T04:44:48.478Z,12.02
2023-05-15T04:47:37.439Z,12.17
2023-05-15T04:50:26.441Z,12.14
2023-05-15T04:53:16.399Z,12.07
2023-05-15T04:56:05.335Z,12.20
2023-05-15T04:58:53.833Z,12.29
2023-05-15T05:01:42.318Z,12.38
2023-05-15T05:04:31.052Z,12.41
2023-05-15T05:07:19.571Z,12.42
2023-05-15T05:10:10.751Z,12.57
2023-05-15T05:12:59.436Z,12.69
2023-05-15T05:15:48.253Z,11.95
2023-05-15T05:18:37.038Z,12.87
2023-05-15T05:21:25.815Z,12.90
2023-05-15T05:24:14.549Z,9.81
2023-05-15T05:27:04.849Z,12.71
2023-05-15T05:29:54.191Z,13.13
2023-05-15T05:32:42.791Z,13.28
2023-05-15T05:35:31.391Z,13.33
2023-05-15T05:38:20.075Z,13.39
2023-05-15T05:41:08.827Z,13.48
2023-05-15T05:43:58.669Z,13.57
2023-05-15T05:46:47.125Z,13.67
2023-05-15T05:49:35.893Z,13.68
2023-05-15T05:52:24.386Z,13.77
2023-05-15T05:55:12.863Z,13.87
2023-05-15T05:58:02.223Z,14.00
2023-05-15T06:00:53.493Z,14.03
2023-05-15T06:03:44.854Z,14.13
2023-05-15T06:06:34.564Z,14.43
2023-05-15T06:09:23.175Z,14.67
2023-05-15T06:12:12.342Z,14.80
2023-05-15T06:15:00.828Z,14.88
2023-05-15T06:17:50.685Z,14.91
2023-05-15T06:20:39.261Z,15.35
2023-05-15T06:23:27.813Z,15.46
2023-05-15T06:26:16.392Z,15.69
2023-05-15T06:29:04.880Z,15.76
2023-05-15T06:31:53.370Z,15.52
2023-05-15T06:34:43.404Z,15.67
2023-05-15T06:37:31.873Z,15.75
2023-05-15T06:40:20.535Z,15.70
2023-05-15T06:43:08.970Z,15.76
2023-05-15T06:45:57.706Z,15.80
2023-05-15T06:48:46.208Z,16.05
2023-05-15T06:51:36.028Z,16.33
2023-05-15T06:54:24.676Z,16.50
2023-05-15T06:57:13.125Z,16.31
2023-05-15T07:00:01.630Z,16.36
2023-05-15T07:02:50.133Z,16.40
2023-05-15T07:05:38.584Z,16.14
2023-05-15T07:08:28.529Z,16.44
2023-05-15T07:11:17.253Z,16.40
2023-05-15T07:14:07.167Z,16.43
2023-05-15T07:16:55.701Z,16.44
2023-05-15T07:19:44.664Z,16.60
2023-05-15T07:22:38.557Z,16.58
2023-05-15T07:25:31.553Z,16.63
2023-05-15T07:28:20.025Z,16.57
2023-05-15T07:31:08.566Z,16.58
2023-05-15T07:33:57.083Z,16.62
2023-05-15T07:36:45.633Z,16.78
2023-05-15T07:39:34.428Z,16.92
2023-05-15T07:42:24.282Z,17.07
2023-05-15T07:45:12.832Z,17.04
2023-05-15T07:48:14.448Z,17.21
2023-05-15T07:51:03.003Z,17.56
2023-05-15T07:53:51.687Z,17.88
2023-05-15T07:56:40.306Z,17.90
2023-05-15T07:59:30.989Z,17.86
2023-05-15T08:02:19.712Z,18.17
2023-05-15T08:05:08.971Z,18.30
2023-05-15T08:07:57.658Z,18.07
2023-05-15T08:10:46.209Z,18.41
2023-05-15T08:13:34.744Z,18.67
2023-05-15T08:16:24.654Z,19.01
2023-05-15T08:19:13.390Z,19.30
2023-05-15T08:22:01.869Z,19.54
2023-05-15T08:24:50.411Z,19.74
2023-05-15T08:27:38.969Z,19.90
2023-05-15T08:30:27.670Z,20.06
2023-05-15T08:33:17.495Z,20.15
2023-05-15T08:36:06.632Z,20.45
2023-05-15T08:38:55.144Z,20.75
2023-05-15T08:41:48.938Z,20.51
2023-05-15T08:44:37.810Z,20.38
2023-05-15T08:47:29.195Z,20.27
2023-05-15T08:50:19.175Z,19.97
2023-05-15T08:53:08.046Z,19.92
2023-05-15T08:55:56.939Z,19.82
2023-05-15T08:58:45.672Z,19.91
2023-05-15T09:01:34.951Z,20.14
2023-05-15T09:04:25.921Z,20.28
2023-05-15T09:07:16.502Z,20.27
2023-05-15T09:10:05.801Z,20.23
2023-05-15T09:12:54.657Z,20.36
2023-05-15T09:15:43.475Z,20.57
2023-05-15T09:18:33.708Z,20.53
2023-05-15T09:21:26.056Z,19.91
2023-05-15T09:24:21.532Z,20.36
2023-05-15T09:27:11.341Z,20.32
2023-05-15T09:30:11.237Z,20.70
2023-05-15T09:33:01.328Z,20.85
2023-05-15T09:35:49.945Z,21.17
2023-05-15T09:38:42.269Z,21.08
2023-05-15T09:41:32.117Z,21.25
2023-05-15T09:44:22.149Z,21.43
2023-05-15T09:47:11.126Z,21.59
2023-05-15T09:49:59.725Z,21.87
2023-05-15T09:52:48.282Z,21.79
2023-05-15T09:55:36.980Z,21.98
2023-05-15T09:58:26.876Z,22.18
2023-05-15T10:01:20.883Z,22.19
2023-05-15T10:04:09.409Z,22.31
2023-05-15T10:06:57.909Z,22.44
2023-05-15T10:09:46.415Z,22.43
2023-05-15T10:12:36.713Z,22.20
2023-05-15T10:15:26.774Z,22.23
2023-05-15T10:18:15.707Z,22.10
2023-05-15T10:21:05.011Z,22.31
2023-05-15T10:23:56.427Z,22.47
2023-05-15T10:26:44.942Z,22.28
2023-05-15T10:29:34.243Z,22.15
2023-05-15T10:32:24.583Z,22.33
2023-05-15T10:35:13.435Z,22.67
2023-05-15T10:38:05.227Z,22.87
2023-05-15T10:40:59.754Z,23.02
2023-05-15T10:43:51.236Z,22.82
2023-05-15T10:46:40.023Z,22.96
2023-05-15T10:49:29.852Z,22.71
2023-05-15T10:52:18.410Z,22.23
2023-05-15T10:55:08.637Z,22.54
2023-05-15T10:57:57.249Z,22.92
2023-05-15T11:00:46.423Z,23.23
2023-05-15T11:03:48.544Z,23.43
2023-05-15T11:06:41.105Z,23.28
2023-05-15T11:09:37.109Z,23.63
2023-05-15T11:12:25.977Z,23.78
2023-05-15T11:15:21.937Z,23.82
2023-05-15T11:18:10.708Z,24.02
2023-05-15T11:21:09.592Z,24.28
2023-05-15T11:24:06.648Z,24.10
2023-05-15T11:27:00.835Z,23.69
2023-05-15T11:30:06.571Z,24.12
2023-05-15T11:33:00.525Z,23.95
2023-05-15T11:35:49.614Z,23.06
2023-05-15T11:38:40.146Z,22.09
2023-05-15T11:41:33.286Z,21.52
2023-05-15T11:44:22.848Z,21.31
2023-05-15T11:47:11.689Z,20.72
2023-05-15T11:50:00.636Z,21.04
2023-05-15T11:52:50.212Z,20.85
2023-05-15T11:55:40.202Z,20.41
2023-05-15T11:58:30.147Z,20.23
2023-05-15T12:01:18.586Z,20.14
2023-05-15T12:04:13.566Z,19.92
2023-05-15T12:07:03.319Z,19.60
2023-05-15T12:09:53.389Z,19.50
2023-05-15T12:12:42.258Z,19.31
2023-05-15T12:15:32.129Z,18.68
2023-05-15T12:18:20.728Z,19.05
2023-05-15T12:21:11.031Z,19.02
2023-05-15T12:26:50.959Z,19.05
2023-05-15T12:29:40.648Z,19.12
2023-05-15T12:32:32.227Z,19.24
2023-05-15T12:35:20.862Z,19.09
2023-05-15T12:38:09.574Z,19.26
2023-05-15T12:40:58.181Z,19.26
2023-05-15T12:43:46.778Z,19.21
2023-05-15T12:46:35.394Z,19.18
2023-05-15T12:49:25.385Z,19.26
2023-05-15T12:52:16.383Z,19.40
2023-05-15T12:55:05.310Z,19.56
2023-05-15T12:57:53.881Z,19.68
2023-05-15T13:00:44.873Z,19.88
2023-05-15T13:03:33.474Z,20.10
2023-05-15T13:06:29.351Z,20.09
2023-05-15T13:09:26.909Z,19.99
2023-05-15T13:12:15.666Z,20.57
2023-05-15T13:15:04.377Z,21.01
2023-05-15T13:17:59.444Z,21.43
2023-05-15T13:20:49.701Z,21.79
2023-05-15T13:23:39.518Z,22.02
2023-05-15T13:26:28.000Z,22.24
2023-05-15T13:29:16.494Z,22.29
2023-05-15T13:32:05.475Z,22.36
2023-05-15T13:34:54.916Z,22.42
2023-05-15T13:37:43.429Z,22.53
2023-05-15T13:40:35.466Z,22.65
2023-05-15T13:43:26.308Z,22.75
2023-05-15T13:46:15.158Z,22.77
2023-05-15T13:49:04.689Z,22.35
2023-05-15T13:51:54.249Z,22.35
2023-05-15T13:54:42.731Z,22.10
2023-05-15T13:57:32.627Z,21.82
2023-05-15T14:00:21.983Z,21.67
2023-05-15T14:03:12.737Z,21.56
2023-05-15T14:06:03.314Z,21.32
2023-05-15T14:08:51.887Z,21.14
2023-05-15T14:11:40.384Z,20.86
2023-05-15T14:14:30.264Z,20.63
2023-05-15T14:17:19.186Z,20.34
2023-05-15T14:20:09.978Z,20.12
2023-05-15T14:22:58.504Z,19.91
2023-05-15T14:25:46.972Z,19.85
2023-05-15T14:28:35.440Z,19.81
2023-05-15T14:31:25.521Z,19.80
2023-05-15T14:34:14.035Z,19.90
2023-05-15T14:37:02.934Z,19.94
2023-05-15T14:39:51.701Z,20.02
2023-05-15T14:42:40.744Z,20.37
2023-05-15T14:45:29.265Z,20.62
2023-05-15T14:48:20.149Z,20.83
2023-05-15T14:51:08.725Z,20.38
2023-05-15T14:53:57.313Z,20.61
2023-05-15T14:56:46.044Z,20.40
2023-05-15T14:59:34.604Z,20.34
2023-05-15T15:02:23.173Z,20.23
2023-05-15T15:05:13.101Z,20.15
2023-05-15T15:08:03.653Z,19.48
2023-05-15T15:10:53.310Z,19.74
2023-05-15T15:13:42.066Z,19.62
2023-05-15T15:16:30.624Z,19.28
2023-05-15T15:19:20.408Z,19.60
2023-05-15T15:22:10.481Z,19.63
2023-05-15T15:25:00.964Z,19.65
2023-05-15T15:27:50.088Z,19.63
2023-05-15T15:30:38.790Z,19.56
2023-05-15T15:33:27.732Z,19.52
2023-05-15T15:36:16.201Z,19.30
2023-05-15T15:39:06.267Z,19.27
2023-05-15T15:41:54.916Z,19.29
2023-05-15T15:44:43.531Z,19.48
2023-05-15T15:47:32.418Z,18.76
2023-05-15T15:50:21.295Z,19.97
2023-05-15T15:53:09.814Z,20.11
2023-05-15T15:55:59.611Z,20.05
2023-05-15T15:58:48.080Z,19.97
2023-05-15T16:01:36.871Z,19.71
2023-05-15T16:04:25.737Z,19.83
2023-05-15T16:07:14.251Z,19.73
2023-05-15T16:10:11.806Z,19.51
2023-05-15T16:13:12.555Z,19.42
2023-05-15T16:16:01.093Z,19.21
2023-05-15T16:18:49.620Z,18.89
2023-05-15T16:21:38.230Z,18.91
2023-05-15T16:24:26.834Z,18.59
2023-05-15T16:27:15.386Z,18.67
2023-05-15T16:30:05.986Z,18.66
2023-05-15T16:32:57.444Z,18.70
2023-05-15T16:35:46.211Z,18.65
2023-05-15T16:38:34.841Z,18.57
2023-05-15T16:41:23.426Z,18.20
2023-05-15T16:44:11.945Z,18.62
2023-05-15T16:47:02.053Z,18.67
2023-05-15T16:49:50.687Z,18.52
2023-05-15T16:52:45.246Z,18.44
2023-05-15T16:55:34.102Z,18.59
2023-05-15T16:58:23.163Z,18.59
2023-05-15T17:01:11.672Z,18.61
2023-05-15T17:04:01.695Z,18.53
2023-05-15T17:06:50.322Z,18.69
2023-05-15T17:09:40.683Z,18.64
2023-05-15T17:12:29.575Z,18.66
2023-05-15T17:15:18.040Z,18.50
2023-05-15T17:18:06.831Z,18.52
2023-05-15T17:20:56.777Z,18.47
2023-05-15T17:23:45.293Z,18.62
2023-05-15T17:26:33.903Z,18.35
2023-05-15T17:29:22.395Z,18.00
2023-05-15T17:32:11.171Z,17.76
2023-05-15T17:34:59.828Z,17.95
2023-05-15T17:37:49.749Z,17.81
2023-05-15T17:40:38.525Z,17.65
2023-05-15T17:43:27.046Z,17.70
2023-05-15T17:46:15.565Z,17.35
2023-05-15T17:49:04.174Z,17.31
2023-05-15T17:51:52.828Z,17.18
2023-05-15T17:54:42.714Z,17.27
2023-05-15T17:57:31.615Z,17.22
2023-05-15T18:00:20.522Z,17.16
2023-05-15T18:03:09.262Z,17.06
2023-05-15T18:05:58.125Z,16.95
2023-05-15T18:08:47.499Z,16.87
2023-05-15T18:11:37.386Z,16.75
2023-05-15T18:14:26.254Z,16.55
2023-05-15T18:17:16.105Z,16.45
2023-05-15T18:20:07.667Z,16.49
2023-05-15T18:22:56.207Z,16.33
2023-05-15T18:25:44.711Z,16.33
2023-05-15T18:28:34.607Z,16.24
2023-05-15T18:31:23.231Z,16.20
2023-05-15T18:34:11.746Z,16.11
2023-05-15T18:37:00.396Z,15.88
2023-05-15T18:39:48.925Z,16.02
2023-05-15T18:42:37.426Z,16.01
2023-05-15T18:45:27.439Z,15.84
2023-05-15T18:48:16.131Z,15.88
2023-05-15T18:51:04.929Z,15.86
2023-05-15T18:53:53.364Z,15.66
2023-05-15T18:56:43.138Z,15.49
2023-05-15T18:59:31.982Z,15.61
2023-05-15T19:02:23.051Z,15.72
2023-05-15T19:05:13.688Z,15.67
2023-05-15T19:08:02.842Z,15.68
2023-05-15T19:10:51.723Z,15.40
2023-05-15T19:13:40.190Z,15.71
2023-05-15T19:16:28.882Z,15.70
2023-05-15T19:19:19.035Z,15.71
2023-05-15T19:22:07.652Z,15.67
2023-05-15T19:24:56.200Z,15.63
2023-05-15T19:27:44.807Z,15.70
2023-05-15T19:30:33.370Z,15.65
2023-05-15T19:33:22.048Z,15.51
2023-05-15T19:36:12.528Z,15.55
2023-05-15T19:39:01.090Z,15.48
2023-05-15T19:41:49.678Z,15.46
2023-05-15T19:44:38.223Z,15.50
2023-05-15T19:47:27.427Z,15.49
2023-05-15T19:50:16.228Z,15.52
2023-05-15T19:53:06.482Z,14.96
2023-05-15T19:55:55.064Z,15.41
2023-05-15T19:58:43.733Z,15.36
2023-05-15T20:01:32.335Z,15.34
2023-05-15T20:04:21.044Z,15.30
2023-05-15T20:07:09.623Z,15.31
2023-05-15T20:09:59.659Z,15.36
2023-05-15T20:12:48.642Z,15.27
2023-05-15T20:15:40.028Z,15.23
2023-05-15T20:18:32.980Z,15.20
2023-05-15T20:21:23.023Z,15.10
2023-05-15T20:24:12.023Z,15.18
2023-05-15T20:27:04.029Z,14.59
2023-05-15T20:29:53.076Z,15.20
2023-05-15T20:32:41.663Z,15.17
2023-05-15T20:35:31.026Z,15.11
2023-05-15T20:38:19.500Z,15.11
2023-05-15T20:41:08.274Z,15.08
2023-05-15T20:43:58.215Z,15.06
2023-05-15T20:46:46.732Z,15.06
2023-05-15T20:49:35.486Z,15.12
2023-05-15T20:52:24.055Z,15.13
2023-05-15T20:55:15.903Z,15.10
2023-05-15T20:58:04.633Z,15.08
2023-05-15T21:00:54.573Z,15.12
2023-05-15T21:03:43.224Z,15.29
2023-05-15T21:06:32.037Z,15.15
2023-05-15T21:09:20.550Z,15.09
2023-05-15T21:12:09.204Z,15.11
2023-05-15T21:14:57.930Z,15.06
2023-05-15T21:17:47.761Z,15.08
2023-05-15T21:20:36.333Z,14.83
2023-05-15T21:23:24.885Z,15.08
2023-05-15T21:26:13.411Z,15.06
2023-05-15T21:29:02.386Z,15.06
2023-05-15T21:31:50.975Z,15.07
2023-05-15T21:34:41.102Z,15.05
2023-05-15T21:37:29.538Z,15.04
2023-05-15T21:40:18.072Z,15.01
2023-05-15T21:43:06.528Z,15.01
2023-05-15T21:45:55.687Z,15.16
2023-05-15T21:48:44.117Z,15.06
2023-05-15T21:51:34.519Z,14.96
2023-05-15T21:54:22.952Z,14.97
2023-05-15T21:57:11.882Z,14.98
2023-05-15T22:00:00.564Z,14.95
2023-05-15T22:02:49.371Z,14.93
2023-05-15T22:05:37.913Z,14.87
2023-05-15T22:08:27.792Z,14.93
2023-05-15T22:11:17.162Z,14.91
2023-05-15T22:14:05.910Z,14.85
2023-05-15T22:16:54.484Z,14.64
2023-05-15T22:19:43.110Z,14.78
2023-05-15T22:22:31.647Z,14.71
2023-05-15T22:25:21.658Z,14.74
2023-05-15T22:28:10.190Z,14.82
2023-05-15T22:30:58.647Z,14.79
2023-05-15T22:33:47.238Z,14.76
2023-05-15T22:36:36.746Z,14.62
2023-05-15T22:39:25.227Z,14.69
2023-05-15T22:42:15.172Z,14.78
2023-05-15T22:45:04.020Z,14.77
2023-05-15T22:47:52.978Z,14.78
2023-05-15T22:50:41.743Z,14.73
2023-05-15T22:53:30.202Z,14.74
2023-05-15T22:56:18.751Z,14.66
2023-05-15T22:59:08.635Z,14.62
2023-05-15T23:01:57.128Z,14.59
2023-05-15T23:04:45.567Z,14.66
2023-05-15T23:07:34.120Z,14.70
2023-05-15T23:10:22.963Z,14.64
2023-05-15T23:13:11.528Z,14.60
2023-05-15T23:16:01.475Z,14.62
2023-05-15T23:18:50.116Z,14.63
2023-05-15T23:21:38.958Z,14.64
2023-05-15T23:24:27.510Z,14.63
2023-05-15T23:27:16.040Z,14.56
2023-05-15T23:30:05.126Z,14.60
2023-05-15T23:32:56.546Z,14.59
2023-05-15T23:35:45.346Z,14.53
2023-05-15T23:38:33.929Z,14.50
2023-05-15T23:41:22.923Z,14.52
2023-05-15T23:44:11.452Z,14.25
2023-05-15T23:46:59.933Z,14.42
2023-05-15T23:49:49.802Z,14.43
2023-05-15T23:52:38.453Z,14.41
2023-05-15T23:55:26.971Z,14.39
2023-05-15T23:58:15.407Z,14.38
